Time;durP1;ratioP1;P1;durP2;ratioP2;P2;SDS_P1;SDS_P2;PMS_P1;PMS_P2;Temp;Humidity;BMP_temperature;BMP_pressure;BME280_temperature;BME280_humidity;BME280_pressure;Samples;Min_cycle;Max_cycle;Signal;HPM_P1;HPM_P2
2022/06/27 00:01:38;;;;;;;10.43;7.53;;;20.40;99.90;;;;;;5067257;28;20045;-72
2022/06/27 00:04:04;;;;;;;10.25;7.97;;;20.40;99.90;;;;;;5052949;28;20080;-72
2022/06/27 00:06:30;;;;;;;10.93;7.57;;;20.40;99.90;;;;;;5052595;28;20052;-72
2022/06/27 00:08:56;;;;;;;11.18;7.93;;;20.40;99.90;;;;;;5067897;28;20056;-72
2022/06/27 00:11:22;;;;;;;10.88;7.63;;;20.40;99.90;;;;;;5051493;28;20040;-73
2022/06/27 00:13:48;;;;;;;12.30;8.05;;;20.40;99.90;;;;;;5053381;28;20045;-74
2022/06/27 00:16:13;;;;;;;11.05;8.32;;;20.30;99.90;;;;;;5053188;28;20396;-72
2022/06/27 00:18:39;;;;;;;11.38;7.80;;;20.30;99.90;;;;;;5053094;28;20052;-72
2022/06/27 00:21:05;;;;;;;13.55;9.00;;;20.30;99.90;;;;;;5052069;28;20128;-72
2022/06/27 00:23:31;;;;;;;13.27;8.40;;;20.20;99.90;;;;;;5053180;28;20043;-72
2022/06/27 00:25:57;;;;;;;12.75;8.43;;;20.30;99.90;;;;;;5053272;28;20387;-73
2022/06/27 00:28:22;;;;;;;9.43;7.07;;;20.20;99.90;;;;;;5052868;28;20045;-72
2022/06/27 00:30:48;;;;;;;9.77;7.30;;;20.30;99.90;;;;;;5053202;28;20045;-72
2022/06/27 00:33:14;;;;;;;11.40;7.88;;;20.20;99.90;;;;;;5052988;28;20084;-72
2022/06/27 00:35:40;;;;;;;10.00;8.43;;;20.20;99.90;;;;;;5052709;28;20143;-72
2022/06/27 00:38:06;;;;;;;10.50;8.05;;;20.20;99.90;;;;;;5052699;28;20063;-72
2022/06/27 00:40:32;;;;;;;11.63;8.88;;;20.20;99.90;;;;;;5052841;28;20535;-72
2022/06/27 00:42:57;;;;;;;12.32;10.10;;;20.20;99.90;;;;;;5035262;28;20392;-72
2022/06/27 00:45:23;;;;;;;11.40;8.70;;;20.20;99.90;;;;;;5053091;28;20128;-72
2022/06/27 00:47:50;;;;;;;14.10;9.93;;;20.20;99.90;;;;;;5053135;28;20048;-72
2022/06/27 00:50:16;;;;;;;13.98;9.65;;;20.20;99.90;;;;;;5052921;28;20060;-72
2022/06/27 00:52:42;;;;;;;9.93;8.70;;;20.20;99.90;;;;;;5053071;28;20106;-72
2022/06/27 00:55:09;;;;;;;12.93;8.50;;;20.20;99.90;;;;;;5052583;28;20468;-72
2022/06/27 00:57:35;;;;;;;12.73;9.75;;;20.20;99.90;;;;;;5053515;28;20049;-72
2022/06/27 01:00:03;;;;;;;11.02;9.38;;;20.20;99.90;;;;;;5052988;28;20138;-72
2022/06/27 01:02:29;;;;;;;9.88;8.77;;;20.20;99.90;;;;;;5051944;28;20049;-72
2022/06/27 01:04:55;;;;;;;10.98;9.30;;;20.20;99.90;;;;;;5051752;28;20053;-72
2022/06/27 01:07:20;;;;;;;15.60;9.68;;;20.20;99.90;;;;;;5052256;28;20053;-72
2022/06/27 01:09:47;;;;;;;10.35;8.93;;;20.20;99.90;;;;;;5053212;28;20045;-72
2022/06/27 01:12:12;;;;;;;11.70;9.35;;;20.20;99.90;;;;;;5052812;28;20167;-72
2022/06/27 01:14:38;;;;;;;12.65;9.13;;;20.20;99.90;;;;;;5071912;28;20392;-72
2022/06/27 01:17:04;;;;;;;12.40;9.55;;;20.00;99.90;;;;;;5056040;28;20045;-72
2022/06/27 01:19:30;;;;;;;12.13;9.02;;;20.00;99.90;;;;;;5055616;28;20037;-72
2022/06/27 01:21:57;;;;;;;11.40;9.25;;;20.00;99.90;;;;;;5056292;28;20051;-72
2022/06/27 01:24:25;;;;;;;12.82;9.68;;;20.00;99.90;;;;;;5056073;28;20590;-72
2022/06/27 01:26:51;;;;;;;22.13;14.02;;;20.00;99.90;;;;;;5056380;28;20439;-72
2022/06/27 01:29:18;;;;;;;17.15;12.95;;;20.10;99.90;;;;;;5055033;28;20049;-72
2022/06/27 01:31:44;;;;;;;16.85;13.65;;;20.10;99.90;;;;;;5056045;28;20084;-72
2022/06/27 01:34:11;;;;;;;13.60;11.40;;;20.20;99.90;;;;;;5038056;28;20476;-72
2022/06/27 01:36:43;;;;;;;11.98;10.50;;;20.20;99.90;;;;;;5055940;28;20114;-72
2022/06/27 01:39:20;;;;;;;12.85;10.10;;;20.20;99.90;;;;;;5054644;28;20049;-72
2022/06/27 01:42:00;;;;;;;13.63;10.85;;;20.20;99.90;;;;;;5054926;28;20052;-72
2022/06/27 01:44:29;;;;;;;16.70;10.35;;;20.10;99.90;;;;;;5055983;28;20041;-72
2022/06/27 01:47:02;;;;;;;12.93;10.15;;;20.10;99.90;;;;;;5055584;28;20128;-72
2022/06/27 01:49:29;;;;;;;12.93;10.25;;;20.10;99.90;;;;;;5055474;28;20452;-72
2022/06/27 01:51:56;;;;;;;11.52;10.07;;;20.00;99.90;;;;;;5055726;28;20087;-72
2022/06/27 01:54:24;;;;;;;15.68;10.82;;;20.00;99.90;;;;;;5056039;28;20048;-72
2022/06/27 01:56:51;;;;;;;18.98;13.20;;;20.10;99.90;;;;;;5054546;28;20056;-72
2022/06/27 01:59:20;;;;;;;13.88;10.82;;;20.20;99.90;;;;;;5055317;28;20049;-72
2022/06/27 02:01:46;;;;;;;12.02;9.30;;;20.20;99.90;;;;;;5054374;28;20049;-72
2022/06/27 02:04:14;;;;;;;10.90;9.50;;;20.20;99.90;;;;;;5055145;28;20041;-73
2022/06/27 02:06:41;;;;;;;12.52;10.70;;;20.10;99.90;;;;;;5054684;28;20135;-72
2022/06/27 02:09:09;;;;;;;18.17;12.90;;;20.10;99.90;;;;;;5053635;28;20055;-72
2022/06/27 02:11:36;;;;;;;13.55;10.45;;;20.20;99.90;;;;;;5055324;28;20388;-72
2022/06/27 02:14:02;;;;;;;21.05;15.38;;;20.20;99.90;;;;;;5055342;28;20053;-72
2022/06/27 02:16:28;;;;;;;16.55;12.77;;;20.20;99.90;;;;;;5055018;28;20053;-73
2022/06/27 02:18:54;;;;;;;17.40;12.55;;;20.10;99.90;;;;;;5055087;28;20049;-72
2022/06/27 02:21:24;;;;;;;13.65;10.88;;;20.20;99.90;;;;;;5054968;28;20045;-72
2022/06/27 02:23:51;;;;;;;13.25;9.18;;;20.20;99.90;;;;;;5054086;28;20092;-72
2022/06/27 02:26:27;;;;;;;12.30;9.63;;;20.10;99.90;;;;;;5053060;28;20040;-72
2022/06/27 02:28:53;;;;;;;11.10;9.57;;;20.10;99.90;;;;;;5055085;28;20185;-72
2022/06/27 02:31:20;;;;;;;14.15;10.13;;;20.10;99.90;;;;;;5054925;28;20058;-72
2022/06/27 02:33:48;;;;;;;13.35;9.73;;;20.10;99.90;;;;;;5054758;28;20067;-72
2022/06/27 02:36:26;;;;;;;15.05;11.75;;;20.10;99.90;;;;;;5054835;28;20107;-72
2022/06/27 02:38:54;;;;;;;13.65;9.88;;;20.00;99.90;;;;;;5053288;28;20499;-72
2022/06/27 02:41:20;;;;;;;13.63;10.85;;;20.00;99.90;;;;;;5053668;28;20060;-72
2022/06/27 02:43:52;;;;;;;13.30;10.90;;;20.00;99.90;;;;;;5053161;28;20057;-72
2022/06/27 02:46:19;;;;;;;12.15;10.48;;;20.00;99.90;;;;;;5053609;28;20560;-72
2022/06/27 02:48:49;;;;;;;13.93;11.20;;;19.90;99.90;;;;;;5054665;28;20488;-72
2022/06/27 02:51:24;;;;;;;14.57;11.00;;;19.90;99.90;;;;;;5054472;28;20514;-72
2022/06/27 02:54:10;;;;;;;15.52;11.05;;;19.90;99.90;;;;;;5053550;28;20052;-73
2022/06/27 02:56:58;;;;;;;12.73;10.38;;;19.90;99.90;;;;;;5053242;28;20045;-72
2022/06/27 02:59:31;;;;;;;15.70;11.30;;;19.90;99.90;;;;;;5053583;28;20136;-76
2022/06/27 03:01:57;;;;;;;16.67;12.35;;;19.90;99.90;;;;;;5053741;28;20107;-76
2022/06/27 03:04:23;;;;;;;27.30;17.45;;;19.90;99.90;;;;;;5054473;28;20045;-77
2022/06/27 03:06:49;;;;;;;19.42;13.10;;;19.80;99.90;;;;;;5053183;28;20052;-75
2022/06/27 03:09:17;;;;;;;21.33;15.52;;;19.70;99.90;;;;;;5053750;28;20407;-76
2022/06/27 03:11:45;;;;;;;31.48;18.42;;;19.80;99.90;;;;;;5053330;28;20045;-76
2022/06/27 03:14:10;;;;;;;23.77;17.10;;;19.90;99.90;;;;;;5054210;28;20057;-76
2022/06/27 03:16:36;;;;;;;26.42;17.23;;;19.90;99.90;;;;;;5053258;28;20041;-76
2022/06/27 03:19:03;;;;;;;18.95;15.10;;;19.90;99.90;;;;;;5052918;28;20098;-77
2022/06/27 03:21:29;;;;;;;20.70;15.00;;;19.90;99.90;;;;;;5053189;28;20055;-76
2022/06/27 03:23:54;;;;;;;21.92;15.68;;;19.90;99.90;;;;;;5052601;28;20041;-76
2022/06/27 03:26:20;;;;;;;21.30;15.35;;;19.90;99.90;;;;;;5053242;28;20412;-76
2022/06/27 03:28:46;;;;;;;18.00;14.30;;;20.00;99.90;;;;;;5053478;28;20055;-76
2022/06/27 03:31:13;;;;;;;18.42;13.07;;;20.00;99.90;;;;;;5052397;28;20118;-76
2022/06/27 03:33:38;;;;;;;18.60;15.25;;;20.00;99.90;;;;;;5052426;28;20128;-76
2022/06/27 03:36:05;;;;;;;21.98;17.00;;;20.00;99.90;;;;;;5054253;28;20239;-76
2022/06/27 03:38:31;;;;;;;19.80;15.82;;;19.90;99.90;;;;;;5052594;28;20464;-76
2022/06/27 03:40:58;;;;;;;18.95;15.13;;;19.90;99.90;;;;;;5053346;28;20053;-76
2022/06/27 03:43:24;;;;;;;24.33;16.95;;;19.90;99.90;;;;;;5053829;28;20053;-76
2022/06/27 03:45:50;;;;;;;21.13;16.05;;;19.90;99.90;;;;;;5052805;28;20048;-76
2022/06/27 03:51:00;;;;;;;24.27;16.98;;;19.90;99.90;;;;;;5052390;28;20384;-76
2022/06/27 03:53:26;;;;;;;27.10;19.00;;;19.80;99.90;;;;;;5053058;28;20128;-76
2022/06/27 03:55:52;;;;;;;20.60;16.40;;;19.80;99.90;;;;;;5051877;28;20128;-76
2022/06/27 03:58:18;;;;;;;26.25;18.05;;;19.90;99.90;;;;;;5052239;28;20132;-76
2022/06/27 04:00:44;;;;;;;26.08;19.92;;;19.90;99.90;;;;;;5052574;28;20365;-76
2022/06/27 04:03:10;;;;;;;27.65;19.08;;;19.90;99.90;;;;;;5052578;28;20548;-76
2022/06/27 04:05:36;;;;;;;19.60;15.90;;;19.90;99.90;;;;;;5053574;28;20119;-76
2022/06/27 04:08:01;;;;;;;25.50;18.52;;;19.90;99.90;;;;;;5052269;28;20076;-76
2022/06/27 04:10:27;;;;;;;25.52;18.50;;;19.90;99.90;;;;;;5052353;28;20400;-76
2022/06/27 04:12:53;;;;;;;24.17;16.13;;;19.90;99.90;;;;;;5052736;28;20045;-76
2022/06/27 04:15:19;;;;;;;20.90;15.02;;;19.90;99.90;;;;;;5068401;28;20111;-77
2022/06/27 04:17:44;;;;;;;19.88;14.82;;;19.90;99.90;;;;;;5051568;28;20083;-76
2022/06/27 04:20:11;;;;;;;25.55;15.13;;;19.80;99.90;;;;;;5052303;28;20121;-76
2022/06/27 04:22:36;;;;;;;20.98;14.20;;;19.70;99.90;;;;;;5035281;28;20060;-76
2022/06/27 04:25:04;;;;;;;17.35;13.77;;;19.70;99.90;;;;;;5053079;28;20045;-76
2022/06/27 04:27:30;;;;;;;20.83;13.93;;;19.80;99.90;;;;;;5052588;28;20481;-76
2022/06/27 04:29:56;;;;;;;23.80;15.07;;;19.80;99.90;;;;;;5052350;28;20123;-77
2022/06/27 04:32:25;;;;;;;20.23;13.32;;;19.80;99.90;;;;;;5053354;28;20503;-76
2022/06/27 04:34:51;;;;;;;22.25;14.15;;;19.80;99.90;;;;;;5051774;28;20132;-76
2022/06/27 04:37:18;;;;;;;20.42;13.20;;;19.80;99.90;;;;;;5052965;28;20132;-76
2022/06/27 04:39:44;;;;;;;22.27;15.70;;;19.70;99.90;;;;;;5053270;28;20119;-76
2022/06/27 04:42:10;;;;;;;15.10;12.60;;;19.80;99.90;;;;;;5053193;28;20095;-76
2022/06/27 04:44:37;;;;;;;13.95;11.27;;;19.70;99.90;;;;;;5053087;28;20077;-76
2022/06/27 04:47:08;;;;;;;13.40;11.13;;;19.80;99.90;;;;;;5051931;28;20492;-76
2022/06/27 04:49:35;;;;;;;10.82;9.60;;;19.80;99.90;;;;;;5055952;28;20079;-75
2022/06/27 04:52:01;;;;;;;9.93;8.90;;;19.70;99.90;;;;;;5055995;28;20436;-76
2022/06/27 04:54:27;;;;;;;14.80;10.98;;;19.70;99.90;;;;;;5055836;28;20135;-76
2022/06/27 04:56:54;;;;;;;12.45;10.40;;;19.80;99.90;;;;;;5055909;28;20183;-76
2022/06/27 04:59:21;;;;;;;13.40;11.00;;;19.70;99.90;;;;;;5055880;28;20052;-76
2022/06/27 05:01:50;;;;;;;12.65;8.82;;;19.80;99.90;;;;;;5055713;28;20049;-76
2022/06/27 05:04:17;;;;;;;9.57;8.07;;;19.70;99.90;;;;;;5054906;28;20408;-76
2022/06/27 05:06:43;;;;;;;11.02;8.23;;;19.70;99.90;;;;;;5054781;28;20055;-76
2022/06/27 05:09:09;;;;;;;12.40;9.32;;;19.60;99.90;;;;;;5055306;28;20088;-76
2022/06/27 05:11:35;;;;;;;11.95;9.73;;;19.50;99.90;;;;;;5055538;28;20092;-76
2022/06/27 05:14:00;;;;;;;13.38;8.02;;;19.60;99.90;;;;;;5056539;28;20052;-76
2022/06/27 05:16:26;;;;;;;7.95;6.68;;;19.60;99.90;;;;;;5055169;28;20133;-76
2022/06/27 05:18:52;;;;;;;8.55;6.63;;;19.50;99.90;;;;;;5055490;28;20053;-77
2022/06/27 05:21:17;;;;;;;9.55;6.90;;;19.60;99.90;;;;;;5056356;28;20044;-76
2022/06/27 05:23:43;;;;;;;7.75;5.32;;;19.60;99.90;;;;;;5055383;28;20092;-76
2022/06/27 05:26:09;;;;;;;5.97;5.35;;;19.70;99.90;;;;;;5038777;28;20055;-76
2022/06/27 05:28:35;;;;;;;9.23;6.00;;;19.70;99.90;;;;;;5054714;28;20045;-76
2022/06/27 05:31:00;;;;;;;7.65;5.88;;;19.60;99.90;;;;;;5054612;28;20076;-76
2022/06/27 05:33:26;;;;;;;6.28;5.30;;;19.60;99.90;;;;;;5055987;28;20053;-76
2022/06/27 05:35:52;;;;;;;6.15;4.30;;;19.70;99.90;;;;;;5054966;28;20049;-76
2022/06/27 05:38:18;;;;;;;6.35;4.70;;;19.80;99.90;;;;;;5054466;28;20056;-76
2022/06/27 05:40:45;;;;;;;12.50;4.93;;;19.90;99.90;;;;;;5038438;28;20080;-76
2022/06/27 05:43:14;;;;;;;6.28;4.47;;;19.90;99.90;;;;;;5054722;28;20453;-76
2022/06/27 05:45:39;;;;;;;6.30;4.15;;;19.80;99.90;;;;;;5055945;28;20048;-76
2022/06/27 05:48:06;;;;;;;4.90;4.05;;;19.80;99.90;;;;;;5054946;28;20045;-76
2022/06/27 05:50:33;;;;;;;7.80;4.90;;;19.90;99.90;;;;;;5055986;28;20085;-76
2022/06/27 05:53:00;;;;;;;5.55;4.40;;;19.90;99.90;;;;;;5055782;28;20049;-76
2022/06/27 05:55:28;;;;;;;5.03;4.18;;;20.00;99.90;;;;;;5054585;28;20091;-76
2022/06/27 05:57:57;;;;;;;5.35;3.33;;;20.00;99.90;;;;;;5054735;28;20053;-76
2022/06/27 06:00:23;;;;;;;3.95;3.55;;;20.00;99.90;;;;;;5053898;28;20053;-76
2022/06/27 06:02:49;;;;;;;7.50;3.90;;;20.10;99.90;;;;;;5054653;28;20128;-76
2022/06/27 06:05:15;;;;;;;7.40;4.10;;;20.20;99.90;;;;;;5054933;28;20099;-76
2022/06/27 06:07:45;;;;;;;6.13;3.70;;;20.20;99.90;;;;;;5053725;28;20086;-76
2022/06/27 06:10:12;;;;;;;5.38;3.30;;;20.20;99.90;;;;;;5055509;28;20056;-76
2022/06/27 06:12:38;;;;;;;5.53;3.88;;;20.30;99.90;;;;;;5055634;28;20053;-76
2022/06/27 06:15:04;;;;;;;6.40;4.35;;;20.30;99.90;;;;;;5070886;28;20135;-77
2022/06/27 06:17:33;;;;;;;4.60;3.65;;;20.20;99.90;;;;;;5054227;28;20041;-76
2022/06/27 06:19:59;;;;;;;5.40;3.72;;;20.30;99.90;;;;;;5055331;28;20384;-76
2022/06/27 06:22:25;;;;;;;5.22;3.40;;;20.30;99.90;;;;;;5054291;28;20053;-76
2022/06/27 06:24:51;;;;;;;4.28;3.78;;;20.40;99.90;;;;;;5055236;28;20053;-76
2022/06/27 06:27:17;;;;;;;5.78;4.45;;;20.50;99.90;;;;;;5054228;28;20059;-76
2022/06/27 06:29:44;;;;;;;7.97;3.40;;;20.40;99.90;;;;;;5054192;28;20436;-76
2022/06/27 06:32:11;;;;;;;6.15;3.25;;;20.40;99.90;;;;;;5054153;28;20063;-76
2022/06/27 06:34:37;;;;;;;5.72;3.60;;;20.30;99.90;;;;;;5054840;28;20092;-76
2022/06/27 06:37:05;;;;;;;4.85;3.42;;;20.30;99.90;;;;;;5054956;28;20056;-76
2022/06/27 06:39:31;;;;;;;8.45;3.63;;;20.20;99.90;;;;;;5054636;28;20103;-76
2022/06/27 06:41:57;;;;;;;5.53;3.63;;;20.30;99.90;;;;;;5070246;28;20492;-76
2022/06/27 06:44:24;;;;;;;4.80;3.25;;;20.20;99.90;;;;;;5053898;28;20051;-76
2022/06/27 06:46:51;;;;;;;5.70;3.55;;;20.20;99.90;;;;;;5053803;28;20049;-76
2022/06/27 06:49:16;;;;;;;6.18;3.30;;;20.20;99.90;;;;;;5054750;28;20127;-76
2022/06/27 06:51:42;;;;;;;6.43;3.78;;;20.30;99.90;;;;;;5053785;28;20132;-76
2022/06/27 06:54:15;;;;;;;5.82;3.42;;;20.40;99.90;;;;;;5053424;28;20059;-76
2022/06/27 06:56:41;;;;;;;5.88;4.03;;;20.40;99.90;;;;;;5054657;28;20064;-76
2022/06/27 06:59:07;;;;;;;5.53;3.95;;;20.40;99.90;;;;;;5053467;28;20080;-79
2022/06/27 07:01:33;;;;;;;5.07;3.67;;;20.50;99.90;;;;;;5054314;28;20518;-76
2022/06/27 07:03:59;;;;;;;5.53;3.28;;;20.40;99.90;;;;;;5053320;28;20135;-76
2022/06/27 07:06:26;;;;;;;5.57;3.53;;;20.30;99.90;;;;;;5054241;28;20049;-76
2022/06/27 07:08:53;;;;;;;7.05;3.47;;;20.40;99.90;;;;;;5053102;28;20051;-76
2022/06/27 07:11:25;;;;;;;5.43;3.30;;;20.40;99.90;;;;;;5053095;28;20128;-76
2022/06/27 07:13:51;;;;;;;4.85;4.00;;;20.40;99.90;;;;;;5053499;28;20060;-75
2022/06/27 07:16:21;;;;;;;10.48;4.35;;;20.40;99.90;;;;;;5053281;28;20139;-77
2022/06/27 07:18:48;;;;;;;5.35;4.28;;;20.30;99.90;;;;;;5053208;28;20107;-78
2022/06/27 07:21:19;;;;;;;5.43;4.00;;;20.00;99.90;;;;;;5053156;28;20074;-79
2022/06/27 07:23:48;;;;;;;7.13;4.80;;;19.70;99.90;;;;;;5053330;28;20064;-75
2022/06/27 07:26:17;;;;;;;8.02;4.68;;;19.70;99.90;;;;;;5053090;28;20365;-75
2022/06/27 07:28:43;;;;;;;8.65;5.22;;;19.70;99.90;;;;;;5036379;28;20049;-76
2022/06/27 07:31:12;;;;;;;5.80;4.20;;;19.80;99.90;;;;;;5053090;28;20071;-75
2022/06/27 07:33:49;;;;;;;4.82;3.88;;;19.70;99.90;;;;;;5052977;28;20059;-75
2022/06/27 07:36:15;;;;;;;9.82;4.10;;;19.70;99.90;;;;;;5053937;28;20052;-74
2022/06/27 07:38:52;;;;;;;6.63;4.53;;;19.90;99.90;;;;;;5052707;28;20079;-75
2022/06/27 07:41:22;;;;;;;7.60;4.15;;;20.10;99.90;;;;;;5062053;28;20056;-75
2022/06/27 07:43:48;;;;;;;5.22;3.63;;;20.00;99.90;;;;;;5055255;28;20048;-73
2022/06/27 07:46:17;;;;;;;3.78;3.38;;;20.00;99.90;;;;;;5052770;28;20048;-75
2022/06/27 07:48:44;;;;;;;5.40;3.60;;;20.10;99.90;;;;;;5053076;28;20139;-75
2022/06/27 07:51:13;;;;;;;5.75;3.45;;;20.10;99.90;;;;;;5052745;28;20041;-75
2022/06/27 07:53:38;;;;;;;7.15;3.60;;;20.20;99.90;;;;;;5053733;28;20076;-75
2022/06/27 07:56:06;;;;;;;5.88;3.78;;;20.20;99.90;;;;;;5052090;28;20477;-75
2022/06/27 07:58:35;;;;;;;6.55;3.78;;;20.20;99.90;;;;;;5052693;28;20049;-75
2022/06/27 08:01:15;;;;;;;6.05;3.45;;;20.20;99.90;;;;;;5053333;28;20519;-76
2022/06/27 08:03:44;;;;;;;6.45;4.35;;;20.20;99.90;;;;;;5052587;28;20044;-75
2022/06/27 08:06:15;;;;;;;5.70;3.70;;;20.30;99.90;;;;;;5052598;28;20049;-74
2022/06/27 08:08:44;;;;;;;4.85;3.50;;;20.30;99.90;;;;;;5052505;28;20045;-75
2022/06/27 08:11:13;;;;;;;5.43;3.75;;;20.30;99.90;;;;;;5052532;28;20061;-75
2022/06/27 08:13:40;;;;;;;4.35;3.38;;;20.30;99.90;;;;;;5052198;28;20057;-75
2022/06/27 08:16:06;;;;;;;4.38;3.40;;;20.30;99.90;;;;;;5035626;28;20045;-76
2022/06/27 08:18:32;;;;;;;6.38;4.00;;;20.30;99.90;;;;;;5053499;28;20438;-74
2022/06/27 08:21:02;;;;;;;4.32;3.85;;;20.30;99.90;;;;;;5053493;28;20396;-74
2022/06/27 08:23:29;;;;;;;6.03;3.60;;;20.30;99.90;;;;;;5053536;28;20076;-74
2022/06/27 08:25:55;;;;;;;5.55;3.92;;;20.30;99.90;;;;;;5057471;28;20119;-75
2022/06/27 08:28:21;;;;;;;5.28;4.13;;;20.30;99.90;;;;;;5056725;28;20516;-75
2022/06/27 08:30:48;;;;;;;6.65;3.67;;;20.50;99.90;;;;;;5056823;28;20053;-74
2022/06/27 08:33:14;;;;;;;5.78;4.25;;;20.50;99.90;;;;;;5056398;28;20056;-75
2022/06/27 08:35:47;;;;;;;5.60;3.75;;;20.60;99.90;;;;;;5055877;28;20136;-75
2022/06/27 08:38:20;;;;;;;7.22;4.07;;;20.60;99.90;;;;;;5057030;28;20049;-75
2022/06/27 08:40:46;;;;;;;5.80;4.00;;;20.70;99.90;;;;;;5056984;28;20041;-74
2022/06/27 08:43:12;;;;;;;8.43;4.55;;;20.70;99.90;;;;;;5055891;28;20053;-76
2022/06/27 08:45:39;;;;;;;5.40;3.85;;;20.60;99.90;;;;;;5056132;28;20056;-75
2022/06/27 08:48:09;;;;;;;5.13;4.05;;;20.50;99.90;;;;;;5056103;28;20055;-75
2022/06/27 08:50:35;;;;;;;7.10;4.30;;;20.50;99.90;;;;;;5056019;28;20060;-76
2022/06/27 08:53:04;;;;;;;5.78;4.53;;;20.50;99.90;;;;;;5056163;28;20056;-76
2022/06/27 08:55:33;;;;;;;6.13;4.03;;;20.60;99.90;;;;;;5056231;28;20049;-76
2022/06/27 08:58:06;;;;;;;6.10;5.03;;;20.70;99.90;;;;;;5055904;28;20499;-81
2022/06/27 09:00:34;;;;;;;7.88;5.93;;;20.70;99.90;;;;;;5055862;28;20484;-79
2022/06/27 09:03:00;;;;;;;8.25;5.78;;;20.60;99.90;;;;;;5056773;28;20133;-81
2022/06/27 09:05:27;;;;;;;10.48;5.97;;;20.50;99.90;;;;;;5055771;28;20111;-80
2022/06/27 09:07:56;;;;;;;8.07;6.10;;;20.40;99.90;;;;;;5055065;28;20048;-81
2022/06/27 09:10:30;;;;;;;6.70;6.00;;;20.40;99.90;;;;;;5055383;28;20443;-81
2022/06/27 09:13:08;;;;;;;6.43;5.70;;;20.50;99.90;;;;;;5055788;28;20045;-80
2022/06/27 09:15:37;;;;;;;6.05;5.03;;;20.30;99.90;;;;;;5055435;28;20045;-79
2022/06/27 09:18:05;;;;;;;7.38;6.22;;;20.40;99.90;;;;;;5055235;28;20538;-80
2022/06/27 09:20:50;;;;;;;7.43;5.30;;;20.50;99.90;;;;;;5055262;28;20049;-81
2022/06/27 09:23:41;;;;;;;6.68;5.03;;;20.40;99.90;;;;;;5055498;28;20084;-84
2022/06/27 09:26:21;;;;;;;7.15;5.68;;;20.60;99.90;;;;;;5038729;28;20088;-84
2022/06/27 09:28:56;;;;;;;6.55;4.78;;;20.70;99.90;;;;;;5055485;28;20544;-85
2022/06/27 09:31:31;;;;;;;6.95;4.38;;;20.70;99.90;;;;;;5055304;28;20056;-76
2022/06/27 09:34:11;;;;;;;5.60;4.57;;;20.80;99.90;;;;;;5038305;28;20052;-80
2022/06/27 09:36:40;;;;;;;8.48;4.50;;;20.80;99.90;;;;;;5054463;28;20049;-84
2022/06/27 09:39:10;;;;;;;6.85;4.10;;;20.80;99.90;;;;;;5054751;28;20064;-84
2022/06/27 09:41:38;;;;;;;4.40;3.60;;;20.90;99.90;;;;;;5056084;28;20500;-83
2022/06/27 09:44:15;;;;;;;6.03;3.97;;;21.00;99.90;;;;;;5054973;28;20060;-84
2022/06/27 09:46:48;;;;;;;5.43;4.22;;;21.00;99.90;;;;;;5055095;28;20135;-84
2022/06/27 09:49:15;;;;;;;6.35;3.85;;;21.00;99.90;;;;;;5054868;28;20049;-84
2022/06/27 09:51:42;;;;;;;6.15;4.10;;;21.00;99.90;;;;;;5038486;28;20099;-82
2022/06/27 09:54:16;;;;;;;4.05;3.40;;;21.00;99.90;;;;;;5056512;28;20045;-82
2022/06/27 09:56:42;;;;;;;5.93;4.05;;;21.10;99.90;;;;;;5054434;28;20056;-83
2022/06/27 09:59:12;;;;;;;4.55;4.10;;;21.10;99.90;;;;;;5054720;28;20388;-83
2022/06/27 10:01:42;;;;;;;6.43;4.28;;;21.20;99.90;;;;;;5054365;28;20403;-83
2022/06/27 10:04:09;;;;;;;5.03;4.05;;;21.10;99.90;;;;;;5054564;28;20476;-83
2022/06/27 10:06:41;;;;;;;4.93;4.15;;;21.10;99.90;;;;;;5037650;28;20128;-84
2022/06/27 10:09:08;;;;;;;4.65;3.45;;;21.10;99.90;;;;;;5054344;28;20080;-84
2022/06/27 10:11:37;;;;;;;6.43;4.53;;;21.10;99.90;;;;;;5054519;28;20049;-84
2022/06/27 10:14:23;;;;;;;5.28;3.88;;;21.10;99.90;;;;;;5054407;28;20045;-84
2022/06/27 10:16:56;;;;;;;4.85;3.38;;;21.30;99.90;;;;;;5054390;28;20045;-83
2022/06/27 10:19:23;;;;;;;4.07;3.67;;;21.20;99.90;;;;;;5054288;28;20435;-84
2022/06/27 10:21:51;;;;;;;5.35;4.10;;;21.30;99.90;;;;;;5054251;28;20041;-84
2022/06/27 10:24:26;;;;;;;5.72;3.80;;;21.40;99.90;;;;;;5053893;28;20041;-84
2022/06/27 10:26:54;;;;;;;7.72;4.00;;;21.40;99.90;;;;;;5054145;28;20056;-84
2022/06/27 10:29:47;;;;;;;5.32;4.22;;;21.40;99.90;;;;;;5054158;28;20053;-84
2022/06/27 10:32:41;;;;;;;5.07;3.40;;;21.50;99.90;;;;;;5054125;28;20118;-84
2022/06/27 10:35:09;;;;;;;4.88;4.05;;;21.40;99.90;;;;;;5068797;28;20056;-76
2022/06/27 10:37:37;;;;;;;5.40;3.92;;;21.40;99.90;;;;;;5053728;28;20131;-86
2022/06/27 10:40:18;;;;;;;8.60;4.53;;;21.40;99.90;;;;;;5037282;28;20084;-84
2022/06/27 10:42:55;;;;;;;6.32;3.53;;;21.50;99.90;;;;;;5053880;28;20045;-84
2022/06/27 10:45:21;;;;;;;8.20;3.60;;;21.50;99.90;;;;;;5052080;28;20056;-84
2022/06/27 10:47:55;;;;;;;4.72;3.42;;;21.60;99.90;;;;;;5036384;28;20369;-84
2022/06/27 10:50:23;;;;;;;5.35;3.10;;;21.40;99.90;;;;;;5036479;28;20049;-83
2022/06/27 10:52:49;;;;;;;4.50;2.95;;;21.50;99.90;;;;;;5053641;28;20392;-83
2022/06/27 10:55:24;;;;;;;6.20;2.83;;;21.50;99.90;;;;;;5053410;28;20048;-84
2022/06/27 10:57:50;;;;;;;4.65;2.60;;;21.60;99.90;;;;;;5053390;28;20051;-78
2022/06/27 11:00:42;;;;;;;4.50;2.67;;;21.70;99.90;;;;;;5053566;28;20048;-82
2022/06/27 11:03:31;;;;;;;3.28;2.70;;;21.80;99.90;;;;;;5053473;28;20053;-85
2022/06/27 11:06:04;;;;;;;4.40;2.70;;;21.90;99.90;;;;;;5052657;28;20092;-82
2022/06/27 11:08:36;;;;;;;3.47;2.30;;;21.90;99.90;;;;;;5052555;28;20052;-83
2022/06/27 11:11:03;;;;;;;4.43;2.72;;;21.90;99.90;;;;;;5052888;28;20045;-78
2022/06/27 11:13:42;;;;;;;4.70;3.47;;;21.80;99.90;;;;;;5052951;28;20461;-78
2022/06/27 11:16:13;;;;;;;5.32;3.05;;;21.90;99.90;;;;;;5054253;28;20052;-78
2022/06/27 11:18:48;;;;;;;4.03;2.78;;;22.10;99.90;;;;;;5053154;28;20057;-77
2022/06/27 11:21:16;;;;;;;4.63;2.55;;;22.10;99.90;;;;;;5036684;28;20127;-77
2022/06/27 11:23:54;;;;;;;3.67;2.20;;;22.10;99.90;;;;;;5053242;28;20373;-77
2022/06/27 11:26:22;;;;;;;3.33;1.98;;;22.00;99.90;;;;;;5054045;28;20045;-77
2022/06/27 11:34:18;;;;;;;3.03;2.35;;;22.00;99.90;;;;;;5054214;28;20472;-83
2022/06/27 11:36:45;;;;;;;3.35;2.10;;;21.80;99.90;;;;;;5052971;28;20064;-80
2022/06/27 11:39:11;;;;;;;2.85;2.40;;;21.70;99.90;;;;;;5052589;28;20136;-78
2022/06/27 11:41:39;;;;;;;3.13;2.33;;;21.70;99.90;;;;;;5052876;28;20112;-79
2022/06/27 11:44:08;;;;;;;3.03;2.15;;;21.70;99.90;;;;;;5052864;28;20056;-78
2022/06/27 11:46:46;;;;;;;4.15;2.67;;;21.80;99.90;;;;;;5052525;28;20105;-77
2022/06/27 11:49:19;;;;;;;3.63;2.05;;;21.80;99.90;;;;;;5052765;28;20542;-77
2022/06/27 11:51:48;;;;;;;3.67;2.00;;;21.80;99.90;;;;;;5052911;28;20049;-77
2022/06/27 11:54:17;;;;;;;3.30;1.83;;;21.80;99.90;;;;;;5052786;28;20052;-78
2022/06/27 11:56:45;;;;;;;3.72;1.90;;;21.90;99.90;;;;;;5052470;28;20048;-77
2022/06/27 11:59:13;;;;;;;4.28;2.05;;;22.00;99.90;;;;;;5052761;28;20049;-77
2022/06/27 12:02:01;;;;;;;3.70;1.77;;;22.20;99.90;;;;;;5053126;28;20048;-80
2022/06/27 12:04:34;;;;;;;5.00;2.08;;;22.20;99.90;;;;;;5052372;28;20063;-77
2022/06/27 12:07:08;;;;;;;2.97;1.80;;;22.00;99.90;;;;;;5051688;28;20049;-78
2022/06/27 12:09:51;;;;;;;2.53;1.75;;;22.00;99.90;;;;;;5052138;28;20102;-79
2022/06/27 12:12:19;;;;;;;2.15;1.80;;;21.90;99.90;;;;;;5052209;28;20506;-79
2022/06/27 12:14:47;;;;;;;2.45;1.65;;;21.90;99.90;;;;;;5052360;28;20125;-78
2022/06/27 12:17:13;;;;;;;3.05;1.90;;;22.00;99.90;;;;;;5052361;28;20059;-79
2022/06/27 12:19:41;;;;;;;3.08;1.95;;;21.90;99.90;;;;;;5052639;28;20091;-77
2022/06/27 12:22:07;;;;;;;4.13;1.95;;;22.00;99.90;;;;;;5052366;28;20133;-77
2022/06/27 12:24:33;;;;;;;2.92;1.70;;;21.90;99.90;;;;;;5052601;28;20369;-78
2022/06/27 12:26:59;;;;;;;3.58;2.13;;;22.00;99.90;;;;;;5052253;28;20041;-77
2022/06/27 12:29:25;;;;;;;3.10;2.00;;;21.90;99.90;;;;;;5035908;28;20076;-77
2022/06/27 12:31:51;;;;;;;4.60;1.92;;;21.90;99.90;;;;;;5035666;28;20095;-75
2022/06/27 12:34:16;;;;;;;2.92;1.90;;;21.90;99.90;;;;;;5051834;28;20140;-78
2022/06/27 12:36:43;;;;;;;3.05;1.95;;;21.90;99.90;;;;;;5051675;28;20127;-78
2022/06/27 12:39:09;;;;;;;3.13;2.30;;;22.10;99.90;;;;;;5051832;28;20045;-79
2022/06/27 12:41:36;;;;;;;2.60;2.05;;;22.10;99.90;;;;;;5035723;28;20045;-79
2022/06/27 12:44:02;;;;;;;4.15;2.40;;;22.30;99.90;;;;;;5035593;28;20400;-79
2022/06/27 12:46:28;;;;;;;4.57;2.40;;;22.30;99.90;;;;;;5035557;28;20045;-79
2022/06/27 12:48:55;;;;;;;4.75;2.67;;;22.30;99.90;;;;;;5052000;28;20052;-81
2022/06/27 12:51:22;;;;;;;6.18;2.63;;;22.20;99.90;;;;;;5035510;28;20484;-79
2022/06/27 12:53:48;;;;;;;3.75;2.60;;;22.20;99.90;;;;;;5035545;28;20056;-79
2022/06/27 12:56:14;;;;;;;3.13;2.03;;;22.20;99.90;;;;;;5051744;28;20127;-80